sensor_id;sensor_type;location;lat;lon;timestamp;P1;durP1;ratioP1;P2;durP2;ratioP2
16965;SDS011;8599;47.852;12.070;2023-04-23T00:00:38;6.27;;;3.67;;
16965;SDS011;8599;47.852;12.070;2023-04-23T00:03:06;4.70;;;3.43;;
16965;SDS011;8599;47.852;12.070;2023-04-23T00:05:34;4.63;;;3.20;;
16965;SDS011;8599;47.852;12.070;2023-04-23T00:08:02;3.73;;;2.87;;
16965;SDS011;8599;47.852;12.070;2023-04-23T00:10:29;4.17;;;3.03;;
16965;SDS011;8599;47.852;12.070;2023-04-23T00:12:58;7.30;;;3.70;;
16965;SDS011;8599;47.852;12.070;2023-04-23T00:15:26;6.60;;;3.30;;
16965;SDS011;8599;47.852;12.070;2023-04-23T00:17:53;5.57;;;3.33;;
16965;SDS011;8599;47.852;12.070;2023-04-23T00:20:20;4.60;;;3.20;;
16965;SDS011;8599;47.852;12.070;2023-04-23T00:22:47;4.37;;;2.50;;
16965;SDS011;8599;47.852;12.070;2023-04-23T00:25:13;4.00;;;2.83;;
16965;SDS011;8599;47.852;12.070;2023-04-23T00:27:40;5.33;;;2.70;;
16965;SDS011;8599;47.852;12.070;2023-04-23T00:30:09;6.10;;;3.87;;
16965;SDS011;8599;47.852;12.070;2023-04-23T00:32:36;7.27;;;3.43;;
16965;SDS011;8599;47.852;12.070;2023-04-23T00:35:03;5.73;;;3.43;;
16965;SDS011;8599;47.852;12.070;2023-04-23T00:37:31;5.90;;;3.70;;
16965;SDS011;8599;47.852;12.070;2023-04-23T00:39:57;5.30;;;3.37;;
16965;SDS011;8599;47.852;12.070;2023-04-23T00:42:24;5.97;;;3.30;;
16965;SDS011;8599;47.852;12.070;2023-04-23T00:44:52;9.10;;;2.83;;
16965;SDS011;8599;47.852;12.070;2023-04-23T00:47:21;7.67;;;2.73;;
16965;SDS011;8599;47.852;12.070;2023-04-23T00:49:48;6.13;;;3.33;;
16965;SDS011;8599;47.852;12.070;2023-04-23T00:52:17;3.83;;;2.40;;
16965;SDS011;8599;47.852;12.070;2023-04-23T00:54:44;5.50;;;3.10;;
16965;SDS011;8599;47.852;12.070;2023-04-23T00:57:10;2.70;;;2.20;;
16965;SDS011;8599;47.852;12.070;2023-04-23T00:59:37;5.23;;;2.67;;
16965;SDS011;8599;47.852;12.070;2023-04-23T01:02:04;2.50;;;2.30;;
16965;SDS011;8599;47.852;12.070;2023-04-23T01:04:33;3.20;;;2.30;;
16965;SDS011;8599;47.852;12.070;2023-04-23T01:07:02;2.73;;;2.20;;
16965;SDS011;8599;47.852;12.070;2023-04-23T01:09:29;2.67;;;2.20;;
16965;SDS011;8599;47.852;12.070;2023-04-23T01:11:57;3.27;;;2.10;;
16965;SDS011;8599;47.852;12.070;2023-04-23T01:14:26;4.23;;;2.03;;
16965;SDS011;8599;47.852;12.070;2023-04-23T01:16:53;6.00;;;2.47;;
16965;SDS011;8599;47.852;12.070;2023-04-23T01:19:20;4.27;;;1.73;;
16965;SDS011;8599;47.852;12.070;2023-04-23T01:21:49;1.80;;;1.70;;
16965;SDS011;8599;47.852;12.070;2023-04-23T01:24:18;1.70;;;1.60;;
16965;SDS011;8599;47.852;12.070;2023-04-23T01:26:45;3.53;;;1.47;;
16965;SDS011;8599;47.852;12.070;2023-04-23T01:29:12;3.23;;;1.67;;
16965;SDS011;8599;47.852;12.070;2023-04-23T01:31:39;3.60;;;1.90;;
16965;SDS011;8599;47.852;12.070;2023-04-23T01:34:07;5.53;;;1.87;;
16965;SDS011;8599;47.852;12.070;2023-04-23T01:36:34;2.00;;;1.90;;
16965;SDS011;8599;47.852;12.070;2023-04-23T01:39:01;1.77;;;1.67;;
16965;SDS011;8599;47.852;12.070;2023-04-23T01:41:29;3.33;;;1.83;;
16965;SDS011;8599;47.852;12.070;2023-04-23T01:43:56;1.93;;;1.67;;
16965;SDS011;8599;47.852;12.070;2023-04-23T01:46:23;2.97;;;2.10;;
16965;SDS011;8599;47.852;12.070;2023-04-23T01:48:50;1.80;;;1.70;;
16965;SDS011;8599;47.852;12.070;2023-04-23T01:51:17;2.30;;;2.07;;
16965;SDS011;8599;47.852;12.070;2023-04-23T01:53:44;1.83;;;1.73;;
16965;SDS011;8599;47.852;12.070;2023-04-23T01:56:11;2.43;;;2.03;;
16965;SDS011;8599;47.852;12.070;2023-04-23T01:58:40;3.10;;;2.37;;
16965;SDS011;8599;47.852;12.070;2023-04-23T02:01:07;7.40;;;2.90;;
16965;SDS011;8599;47.852;12.070;2023-04-23T02:03:34;7.07;;;3.17;;
16965;SDS011;8599;47.852;12.070;2023-04-23T02:06:01;4.90;;;2.83;;
16965;SDS011;8599;47.852;12.070;2023-04-23T02:08:29;3.33;;;2.80;;
16965;SDS011;8599;47.852;12.070;2023-04-23T02:10:56;2.60;;;2.40;;
16965;SDS011;8599;47.852;12.070;2023-04-23T02:13:22;3.70;;;2.87;;
16965;SDS011;8599;47.852;12.070;2023-04-23T02:15:51;4.20;;;2.20;;
16965;SDS011;8599;47.852;12.070;2023-04-23T02:18:17;5.17;;;2.37;;
16965;SDS011;8599;47.852;12.070;2023-04-23T02:20:44;2.33;;;2.17;;
16965;SDS011;8599;47.852;12.070;2023-04-23T02:23:11;2.50;;;2.00;;
16965;SDS011;8599;47.852;12.070;2023-04-23T02:25:38;4.27;;;1.90;;
16965;SDS011;8599;47.852;12.070;2023-04-23T02:28:05;3.00;;;2.37;;
16965;SDS011;8599;47.852;12.070;2023-04-23T02:30:32;8.93;;;3.23;;
16965;SDS011;8599;47.852;12.070;2023-04-23T02:33:00;4.73;;;2.40;;
16965;SDS011;8599;47.852;12.070;2023-04-23T02:35:27;5.90;;;2.87;;
16965;SDS011;8599;47.852;12.070;2023-04-23T02:37:54;4.40;;;2.10;;
16965;SDS011;8599;47.852;12.070;2023-04-23T02:40:21;2.73;;;1.97;;
16965;SDS011;8599;47.852;12.070;2023-04-23T02:42:48;2.30;;;2.10;;
16965;SDS011;8599;47.852;12.070;2023-04-23T02:45:15;2.30;;;1.87;;
16965;SDS011;8599;47.852;12.070;2023-04-23T02:47:42;3.00;;;2.30;;
16965;SDS011;8599;47.852;12.070;2023-04-23T02:50:10;6.13;;;2.40;;
16965;SDS011;8599;47.852;12.070;2023-04-23T02:52:37;3.50;;;2.53;;
16965;SDS011;8599;47.852;12.070;2023-04-23T02:55:04;2.60;;;2.27;;
16965;SDS011;8599;47.852;12.070;2023-04-23T02:57:33;5.83;;;2.40;;
16965;SDS011;8599;47.852;12.070;2023-04-23T02:59:59;5.10;;;2.43;;
16965;SDS011;8599;47.852;12.070;2023-04-23T03:02:26;2.90;;;2.17;;
16965;SDS011;8599;47.852;12.070;2023-04-23T03:04:53;2.70;;;2.00;;
16965;SDS011;8599;47.852;12.070;2023-04-23T03:07:21;2.10;;;1.90;;
16965;SDS011;8599;47.852;12.070;2023-04-23T03:09:48;2.10;;;1.67;;
16965;SDS011;8599;47.852;12.070;2023-04-23T03:12:15;1.80;;;1.70;;
16965;SDS011;8599;47.852;12.070;2023-04-23T03:14:42;2.83;;;1.87;;
16965;SDS011;8599;47.852;12.070;2023-04-23T03:17:09;2.00;;;1.80;;
16965;SDS011;8599;47.852;12.070;2023-04-23T03:19:36;3.50;;;1.97;;
16965;SDS011;8599;47.852;12.070;2023-04-23T03:22:02;3.43;;;1.77;;
16965;SDS011;8599;47.852;12.070;2023-04-23T03:24:31;3.53;;;2.70;;
16965;SDS011;8599;47.852;12.070;2023-04-23T03:26:58;3.33;;;2.20;;
16965;SDS011;8599;47.852;12.070;2023-04-23T03:29:25;7.10;;;3.40;;
16965;SDS011;8599;47.852;12.070;2023-04-23T03:31:52;3.17;;;1.90;;
16965;SDS011;8599;47.852;12.070;2023-04-23T03:34:19;4.07;;;2.37;;
16965;SDS011;8599;47.852;12.070;2023-04-23T03:36:46;2.93;;;1.97;;
16965;SDS011;8599;47.852;12.070;2023-04-23T03:39:14;2.77;;;2.30;;
16965;SDS011;8599;47.852;12.070;2023-04-23T03:41:43;5.83;;;2.03;;
16965;SDS011;8599;47.852;12.070;2023-04-23T03:44:10;3.77;;;2.13;;
16965;SDS011;8599;47.852;12.070;2023-04-23T03:46:36;6.30;;;2.33;;
16965;SDS011;8599;47.852;12.070;2023-04-23T03:49:03;3.23;;;2.30;;
16965;SDS011;8599;47.852;12.070;2023-04-23T03:51:30;1.77;;;1.60;;
16965;SDS011;8599;47.852;12.070;2023-04-23T03:53:57;4.93;;;2.03;;
16965;SDS011;8599;47.852;12.070;2023-04-23T03:56:23;3.43;;;1.73;;
16965;SDS011;8599;47.852;12.070;2023-04-23T03:58:52;2.80;;;1.70;;
16965;SDS011;8599;47.852;12.070;2023-04-23T04:01:18;2.90;;;1.90;;
16965;SDS011;8599;47.852;12.070;2023-04-23T04:03:46;3.13;;;1.73;;
16965;SDS011;8599;47.852;12.070;2023-04-23T04:06:12;2.53;;;1.87;;
16965;SDS011;8599;47.852;12.070;2023-04-23T04:08:39;5.90;;;2.00;;
16965;SDS011;8599;47.852;12.070;2023-04-23T04:11:06;8.00;;;2.10;;
16965;SDS011;8599;47.852;12.070;2023-04-23T04:13:33;1.87;;;1.77;;
16965;SDS011;8599;47.852;12.070;2023-04-23T04:16:01;2.53;;;1.90;;
16965;SDS011;8599;47.852;12.070;2023-04-23T04:18:28;3.27;;;2.20;;
16965;SDS011;8599;47.852;12.070;2023-04-23T04:20:55;2.87;;;1.97;;
16965;SDS011;8599;47.852;12.070;2023-04-23T04:23:22;2.50;;;2.03;;
16965;SDS011;8599;47.852;12.070;2023-04-23T04:25:48;2.83;;;2.17;;
16965;SDS011;8599;47.852;12.070;2023-04-23T04:28:18;2.53;;;1.90;;
16965;SDS011;8599;47.852;12.070;2023-04-23T04:30:45;1.70;;;1.60;;
16965;SDS011;8599;47.852;12.070;2023-04-23T04:33:15;2.73;;;1.83;;
16965;SDS011;8599;47.852;12.070;2023-04-23T04:35:43;3.17;;;2.37;;
16965;SDS011;8599;47.852;12.070;2023-04-23T04:38:10;1.93;;;1.83;;
16965;SDS011;8599;47.852;12.070;2023-04-23T04:40:37;3.17;;;2.40;;
16965;SDS011;8599;47.852;12.070;2023-04-23T04:43:04;8.43;;;2.40;;
16965;SDS011;8599;47.852;12.070;2023-04-23T04:45:31;4.93;;;2.83;;
16965;SDS011;8599;47.852;12.070;2023-04-23T04:47:58;3.00;;;1.93;;
16965;SDS011;8599;47.852;12.070;2023-04-23T04:50:26;9.40;;;2.60;;
16965;SDS011;8599;47.852;12.070;2023-04-23T04:52:53;3.00;;;2.27;;
16965;SDS011;8599;47.852;12.070;2023-04-23T04:55:20;2.00;;;1.90;;
16965;SDS011;8599;47.852;12.070;2023-04-23T04:57:47;3.07;;;2.57;;
16965;SDS011;8599;47.852;12.070;2023-04-23T05:00:20;4.47;;;2.20;;
16965;SDS011;8599;47.852;12.070;2023-04-23T05:02:49;4.63;;;2.40;;
16965;SDS011;8599;47.852;12.070;2023-04-23T05:05:17;3.47;;;2.23;;
16965;SDS011;8599;47.852;12.070;2023-04-23T05:07:46;3.80;;;2.23;;
16965;SDS011;8599;47.852;12.070;2023-04-23T05:10:13;5.03;;;2.37;;
16965;SDS011;8599;47.852;12.070;2023-04-23T05:12:40;3.80;;;2.23;;
16965;SDS011;8599;47.852;12.070;2023-04-23T05:15:08;3.67;;;2.37;;
16965;SDS011;8599;47.852;12.070;2023-04-23T05:17:37;3.03;;;2.60;;
16965;SDS011;8599;47.852;12.070;2023-04-23T05:20:04;5.27;;;2.47;;
16965;SDS011;8599;47.852;12.070;2023-04-23T05:22:33;3.43;;;2.47;;
16965;SDS011;8599;47.852;12.070;2023-04-23T05:25:01;2.57;;;2.20;;
16965;SDS011;8599;47.852;12.070;2023-04-23T05:27:28;5.73;;;3.17;;
16965;SDS011;8599;47.852;12.070;2023-04-23T05:29:55;2.70;;;2.50;;
16965;SDS011;8599;47.852;12.070;2023-04-23T05:32:23;4.27;;;2.90;;
16965;SDS011;8599;47.852;12.070;2023-04-23T05:34:50;5.63;;;3.13;;
16965;SDS011;8599;47.852;12.070;2023-04-23T05:37:17;3.23;;;2.57;;
16965;SDS011;8599;47.852;12.070;2023-04-23T05:39:44;3.33;;;2.83;;
16965;SDS011;8599;47.852;12.070;2023-04-23T05:42:12;6.77;;;3.30;;
16965;SDS011;8599;47.852;12.070;2023-04-23T05:44:39;5.47;;;3.03;;
16965;SDS011;8599;47.852;12.070;2023-04-23T05:47:06;6.10;;;3.07;;
16965;SDS011;8599;47.852;12.070;2023-04-23T05:49:33;4.80;;;3.03;;
16965;SDS011;8599;47.852;12.070;2023-04-23T05:52:00;4.43;;;3.20;;
16965;SDS011;8599;47.852;12.070;2023-04-23T05:54:28;4.30;;;3.60;;
16965;SDS011;8599;47.852;12.070;2023-04-23T05:56:54;4.03;;;3.20;;
16965;SDS011;8599;47.852;12.070;2023-04-23T05:59:23;5.37;;;3.40;;
16965;SDS011;8599;47.852;12.070;2023-04-23T06:01:49;4.50;;;2.90;;
16965;SDS011;8599;47.852;12.070;2023-04-23T06:04:16;4.93;;;3.47;;
16965;SDS011;8599;47.852;12.070;2023-04-23T06:06:43;6.90;;;3.13;;
16965;SDS011;8599;47.852;12.070;2023-04-23T06:09:10;6.20;;;3.40;;
16965;SDS011;8599;47.852;12.070;2023-04-23T06:11:37;3.97;;;2.70;;
16965;SDS011;8599;47.852;12.070;2023-04-23T06:14:04;4.93;;;2.83;;
16965;SDS011;8599;47.852;12.070;2023-04-23T06:16:32;5.00;;;2.77;;
16965;SDS011;8599;47.852;12.070;2023-04-23T06:18:59;3.87;;;2.77;;
16965;SDS011;8599;47.852;12.070;2023-04-23T06:21:25;5.67;;;2.70;;
16965;SDS011;8599;47.852;12.070;2023-04-23T06:23:52;3.73;;;2.70;;
16965;SDS011;8599;47.852;12.070;2023-04-23T06:26:19;10.03;;;2.93;;
16965;SDS011;8599;47.852;12.070;2023-04-23T06:28:46;3.17;;;2.53;;
16965;SDS011;8599;47.852;12.070;2023-04-23T06:31:13;2.60;;;2.40;;
16965;SDS011;8599;47.852;12.070;2023-04-23T06:33:41;2.77;;;2.53;;
16965;SDS011;8599;47.852;12.070;2023-04-23T06:36:08;2.63;;;2.43;;
16965;SDS011;8599;47.852;12.070;2023-04-23T06:38:35;2.70;;;2.30;;
16965;SDS011;8599;47.852;12.070;2023-04-23T06:41:02;2.60;;;2.40;;
16965;SDS011;8599;47.852;12.070;2023-04-23T06:43:29;2.30;;;2.10;;
16965;SDS011;8599;47.852;12.070;2023-04-23T06:45:56;2.00;;;1.90;;
16965;SDS011;8599;47.852;12.070;2023-04-23T06:48:23;4.33;;;2.50;;
16965;SDS011;8599;47.852;12.070;2023-04-23T06:50:52;3.87;;;2.60;;
16965;SDS011;8599;47.852;12.070;2023-04-23T06:53:19;2.80;;;2.37;;
16965;SDS011;8599;47.852;12.070;2023-04-23T06:55:46;3.27;;;2.57;;
16965;SDS011;8599;47.852;12.070;2023-04-23T06:58:14;2.37;;;2.20;;
16965;SDS011;8599;47.852;12.070;2023-04-23T07:00:41;3.67;;;2.30;;
16965;SDS011;8599;47.852;12.070;2023-04-23T07:03:07;6.53;;;2.50;;
16965;SDS011;8599;47.852;12.070;2023-04-23T07:05:34;2.50;;;2.23;;
16965;SDS011;8599;47.852;12.070;2023-04-23T07:08:02;2.93;;;2.63;;
16965;SDS011;8599;47.852;12.070;2023-04-23T07:10:29;5.07;;;2.80;;
16965;SDS011;8599;47.852;12.070;2023-04-23T07:12:56;6.07;;;2.70;;
16965;SDS011;8599;47.852;12.070;2023-04-23T07:15:23;4.07;;;2.20;;
16965;SDS011;8599;47.852;12.070;2023-04-23T07:17:50;2.63;;;2.10;;
16965;SDS011;8599;47.852;12.070;2023-04-23T07:20:17;2.73;;;2.33;;
16965;SDS011;8599;47.852;12.070;2023-04-23T07:22:44;5.93;;;3.17;;
16965;SDS011;8599;47.852;12.070;2023-04-23T07:25:12;4.40;;;3.70;;
16965;SDS011;8599;47.852;12.070;2023-04-23T07:27:39;3.07;;;2.70;;
16965;SDS011;8599;47.852;12.070;2023-04-23T07:30:06;2.60;;;2.40;;
16965;SDS011;8599;47.852;12.070;2023-04-23T07:32:34;6.93;;;3.20;;
16965;SDS011;8599;47.852;12.070;2023-04-23T07:35:00;2.93;;;2.37;;
16965;SDS011;8599;47.852;12.070;2023-04-23T07:37:28;6.90;;;3.50;;
16965;SDS011;8599;47.852;12.070;2023-04-23T07:39:55;4.77;;;3.30;;
16965;SDS011;8599;47.852;12.070;2023-04-23T07:42:23;5.57;;;3.63;;
16965;SDS011;8599;47.852;12.070;2023-04-23T07:44:50;3.27;;;2.97;;
16965;SDS011;8599;47.852;12.070;2023-04-23T07:47:17;11.70;;;5.47;;
16965;SDS011;8599;47.852;12.070;2023-04-23T07:49:44;3.07;;;2.70;;
16965;SDS011;8599;47.852;12.070;2023-04-23T07:52:11;2.73;;;2.27;;
16965;SDS011;8599;47.852;12.070;2023-04-23T07:54:37;4.33;;;2.33;;
16965;SDS011;8599;47.852;12.070;2023-04-23T07:57:04;4.73;;;2.73;;
16965;SDS011;8599;47.852;12.070;2023-04-23T07:59:32;3.47;;;2.23;;
16965;SDS011;8599;47.852;12.070;2023-04-23T08:01:59;3.80;;;2.50;;
16965;SDS011;8599;47.852;12.070;2023-04-23T08:04:26;2.73;;;2.47;;
16965;SDS011;8599;47.852;12.070;2023-04-23T08:06:53;2.63;;;2.23;;
16965;SDS011;8599;47.852;12.070;2023-04-23T08:09:20;4.50;;;2.67;;
16965;SDS011;8599;47.852;12.070;2023-04-23T08:11:47;4.60;;;2.70;;
16965;SDS011;8599;47.852;12.070;2023-04-23T08:14:13;5.93;;;2.63;;
16965;SDS011;8599;47.852;12.070;2023-04-23T08:16:42;6.07;;;2.70;;
16965;SDS011;8599;47.852;12.070;2023-04-23T08:19:09;3.67;;;2.80;;
16965;SDS011;8599;47.852;12.070;2023-04-23T08:21:35;2.37;;;2.20;;
16965;SDS011;8599;47.852;12.070;2023-04-23T08:24:02;3.23;;;2.20;;
16965;SDS011;8599;47.852;12.070;2023-04-23T08:26:30;6.30;;;2.20;;
16965;SDS011;8599;47.852;12.070;2023-04-23T08:28:57;3.40;;;2.53;;
16965;SDS011;8599;47.852;12.070;2023-04-23T08:31:24;3.43;;;2.33;;
16965;SDS011;8599;47.852;12.070;2023-04-23T08:33:53;2.73;;;2.43;;
16965;SDS011;8599;47.852;12.070;2023-04-23T08:36:20;3.50;;;2.83;;
16965;SDS011;8599;47.852;12.070;2023-04-23T08:38:47;3.73;;;2.83;;
16965;SDS011;8599;47.852;12.070;2023-04-23T08:41:14;3.43;;;2.50;;
16965;SDS011;8599;47.852;12.070;2023-04-23T08:43:45;3.03;;;2.50;;
16965;SDS011;8599;47.852;12.070;2023-04-23T08:46:29;3.10;;;2.80;;
16965;SDS011;8599;47.852;12.070;2023-04-23T08:48:59;2.60;;;2.37;;
16965;SDS011;8599;47.852;12.070;2023-04-23T08:51:28;3.67;;;2.97;;
16965;SDS011;8599;47.852;12.070;2023-04-23T08:53:58;4.20;;;2.53;;
16965;SDS011;8599;47.852;12.070;2023-04-23T08:56:26;2.67;;;2.40;;
16965;SDS011;8599;47.852;12.070;2023-04-23T08:58:53;2.70;;;2.50;;
16965;SDS011;8599;47.852;12.070;2023-04-23T09:01:21;6.87;;;2.87;;
16965;SDS011;8599;47.852;12.070;2023-04-23T09:03:48;4.23;;;2.60;;
16965;SDS011;8599;47.852;12.070;2023-04-23T09:06:16;2.90;;;2.60;;
16965;SDS011;8599;47.852;12.070;2023-04-23T09:08:45;4.10;;;2.60;;
16965;SDS011;8599;47.852;12.070;2023-04-23T09:11:12;2.40;;;2.20;;
16965;SDS011;8599;47.852;12.070;2023-04-23T09:13:40;5.67;;;2.00;;
16965;SDS011;8599;47.852;12.070;2023-04-23T09:16:07;2.83;;;2.53;;
16965;SDS011;8599;47.852;12.070;2023-04-23T09:18:35;2.70;;;2.50;;
16965;SDS011;8599;47.852;12.070;2023-04-23T09:21:04;2.40;;;2.10;;
16965;SDS011;8599;47.852;12.070;2023-04-23T09:23:33;3.13;;;2.10;;
16965;SDS011;8599;47.852;12.070;2023-04-23T09:26:05;3.43;;;2.50;;
16965;SDS011;8599;47.852;12.070;2023-04-23T09:28:33;1.93;;;1.70;;
16965;SDS011;8599;47.852;12.070;2023-04-23T09:31:00;2.50;;;2.17;;
16965;SDS011;8599;47.852;12.070;2023-04-23T09:33:30;2.10;;;1.80;;
16965;SDS011;8599;47.852;12.070;2023-04-23T09:36:03;1.57;;;1.47;;
16965;SDS011;8599;47.852;12.070;2023-04-23T09:38:36;1.70;;;1.60;;
16965;SDS011;8599;47.852;12.070;2023-04-23T09:41:19;2.13;;;2.00;;
16965;SDS011;8599;47.852;12.070;2023-04-23T09:43:46;7.70;;;2.00;;
16965;SDS011;8599;47.852;12.070;2023-04-23T09:46:13;2.50;;;2.30;;
16965;SDS011;8599;47.852;12.070;2023-04-23T09:48:40;6.03;;;2.57;;
16965;SDS011;8599;47.852;12.070;2023-04-23T09:51:07;3.50;;;2.00;;
16965;SDS011;8599;47.852;12.070;2023-04-23T09:53:40;3.73;;;2.10;;
16965;SDS011;8599;47.852;12.070;2023-04-23T09:56:08;2.93;;;2.13;;
16965;SDS011;8599;47.852;12.070;2023-04-23T09:58:35;3.60;;;2.13;;
16965;SDS011;8599;47.852;12.070;2023-04-23T10:01:06;2.13;;;2.00;;
16965;SDS011;8599;47.852;12.070;2023-04-23T10:03:34;5.30;;;1.70;;
16965;SDS011;8599;47.852;12.070;2023-04-23T10:06:00;3.60;;;2.17;;
16965;SDS011;8599;47.852;12.070;2023-04-23T10:08:28;3.20;;;2.53;;
16965;SDS011;8599;47.852;12.070;2023-04-23T10:10:58;4.07;;;2.80;;
16965;SDS011;8599;47.852;12.070;2023-04-23T10:13:25;4.33;;;2.20;;
16965;SDS011;8599;47.852;12.070;2023-04-23T10:15:53;3.13;;;2.17;;
16965;SDS011;8599;47.852;12.070;2023-04-23T10:18:21;4.00;;;2.77;;
16965;SDS011;8599;47.852;12.070;2023-04-23T10:20:48;5.30;;;2.37;;
16965;SDS011;8599;47.852;12.070;2023-04-23T10:23:15;2.43;;;2.23;;
16965;SDS011;8599;47.852;12.070;2023-04-23T10:25:44;3.33;;;2.80;;
16965;SDS011;8599;47.852;12.070;2023-04-23T10:28:14;2.80;;;2.50;;
16965;SDS011;8599;47.852;12.070;2023-04-23T10:30:45;2.63;;;2.43;;
16965;SDS011;8599;47.852;12.070;2023-04-23T10:33:14;3.13;;;1.80;;
16965;SDS011;8599;47.852;12.070;2023-04-23T10:35:42;3.33;;;2.33;;
16965;SDS011;8599;47.852;12.070;2023-04-23T10:38:09;2.90;;;2.10;;
16965;SDS011;8599;47.852;12.070;2023-04-23T10:40:36;3.17;;;2.37;;
16965;SDS011;8599;47.852;12.070;2023-04-23T10:43:07;2.20;;;2.00;;
16965;SDS011;8599;47.852;12.070;2023-04-23T10:45:36;2.10;;;1.90;;
16965;SDS011;8599;47.852;12.070;2023-04-23T10:48:03;2.37;;;2.13;;
16965;SDS011;8599;47.852;12.070;2023-04-23T10:50:34;2.53;;;2.33;;
16965;SDS011;8599;47.852;12.070;2023-04-23T10:53:02;2.33;;;2.13;;
16965;SDS011;8599;47.852;12.070;2023-04-23T10:55:29;3.47;;;2.37;;
16965;SDS011;8599;47.852;12.070;2023-04-23T10:57:58;3.23;;;2.40;;
16965;SDS011;8599;47.852;12.070;2023-04-23T11:00:26;3.87;;;2.40;;
16965;SDS011;8599;47.852;12.070;2023-04-23T11:02:55;3.70;;;2.50;;
16965;SDS011;8599;47.852;12.070;2023-04-23T11:05:22;3.83;;;2.80;;
16965;SDS011;8599;47.852;12.070;2023-04-23T11:08:01;7.23;;;2.80;;
16965;SDS011;8599;47.852;12.070;2023-04-23T11:10:29;4.90;;;2.67;;
16965;SDS011;8599;47.852;12.070;2023-04-23T11:12:57;4.90;;;2.93;;
16965;SDS011;8599;47.852;12.070;2023-04-23T11:15:44;4.40;;;2.83;;
16965;SDS011;8599;47.852;12.070;2023-04-23T11:18:13;5.00;;;3.70;;
16965;SDS011;8599;47.852;12.070;2023-04-23T11:20:40;4.50;;;3.13;;
16965;SDS011;8599;47.852;12.070;2023-04-23T11:23:07;5.30;;;3.03;;
16965;SDS011;8599;47.852;12.070;2023-04-23T11:25:53;4.50;;;3.30;;
16965;SDS011;8599;47.852;12.070;2023-04-23T11:28:21;3.70;;;3.30;;
16965;SDS011;8599;47.852;12.070;2023-04-23T11:30:49;4.80;;;3.03;;
16965;SDS011;8599;47.852;12.070;2023-04-23T11:33:19;4.77;;;3.07;;
16965;SDS011;8599;47.852;12.070;2023-04-23T11:35:47;3.57;;;3.17;;
16965;SDS011;8599;47.852;12.070;2023-04-23T11:38:13;5.73;;;3.90;;
16965;SDS011;8599;47.852;12.070;2023-04-23T11:40:40;3.53;;;3.20;;
16965;SDS011;8599;47.852;12.070;2023-04-23T11:43:16;7.10;;;3.57;;
16965;SDS011;8599;47.852;12.070;2023-04-23T11:45:44;4.97;;;3.33;;
16965;SDS011;8599;47.852;12.070;2023-04-23T11:48:10;4.63;;;3.60;;
16965;SDS011;8599;47.852;12.070;2023-04-23T11:50:38;3.80;;;2.83;;
16965;SDS011;8599;47.852;12.070;2023-04-23T11:53:07;4.73;;;3.53;;
16965;SDS011;8599;47.852;12.070;2023-04-23T11:55:35;3.80;;;3.23;;
16965;SDS011;8599;47.852;12.070;2023-04-23T11:58:07;4.17;;;3.70;;
16965;SDS011;8599;47.852;12.070;2023-04-23T12:00:35;4.70;;;3.10;;
16965;SDS011;8599;47.852;12.070;2023-04-23T12:03:02;3.43;;;3.13;;
16965;SDS011;8599;47.852;12.070;2023-04-23T12:05:30;6.63;;;4.67;;
16965;SDS011;8599;47.852;12.070;2023-04-23T12:08:06;5.37;;;3.67;;
16965;SDS011;8599;47.852;12.070;2023-04-23T12:10:40;3.80;;;2.47;;
16965;SDS011;8599;47.852;12.070;2023-04-23T12:13:12;4.63;;;2.93;;
16965;SDS011;8599;47.852;12.070;2023-04-23T12:15:48;3.93;;;2.60;;
16965;SDS011;8599;47.852;12.070;2023-04-23T12:18:16;3.10;;;2.80;;
16965;SDS011;8599;47.852;12.070;2023-04-23T12:20:44;5.07;;;2.83;;
16965;SDS011;8599;47.852;12.070;2023-04-23T12:23:12;4.30;;;2.67;;
16965;SDS011;8599;47.852;12.070;2023-04-23T12:25:39;4.13;;;2.80;;
16965;SDS011;8599;47.852;12.070;2023-04-23T12:28:07;3.83;;;3.00;;
16965;SDS011;8599;47.852;12.070;2023-04-23T12:30:34;4.00;;;3.03;;
16965;SDS011;8599;47.852;12.070;2023-04-23T12:33:09;4.17;;;2.80;;
16965;SDS011;8599;47.852;12.070;2023-04-23T12:35:37;9.80;;;3.30;;
16965;SDS011;8599;47.852;12.070;2023-04-23T12:38:05;3.50;;;2.70;;
16965;SDS011;8599;47.852;12.070;2023-04-23T12:40:33;4.17;;;2.77;;
16965;SDS011;8599;47.852;12.070;2023-04-23T12:43:00;6.77;;;2.93;;
16965;SDS011;8599;47.852;12.070;2023-04-23T12:45:35;4.27;;;2.97;;
16965;SDS011;8599;47.852;12.070;2023-04-23T12:48:02;4.20;;;2.87;;
16965;SDS011;8599;47.852;12.070;2023-04-23T12:50:29;3.43;;;3.13;;
16965;SDS011;8599;47.852;12.070;2023-04-23T12:52:56;6.80;;;3.47;;
16965;SDS011;8599;47.852;12.070;2023-04-23T12:55:23;10.33;;;3.07;;
16965;SDS011;8599;47.852;12.070;2023-04-23T12:57:51;4.53;;;3.13;;
16965;SDS011;8599;47.852;12.070;2023-04-23T13:00:18;3.83;;;3.27;;
16965;SDS011;8599;47.852;12.070;2023-04-23T13:02:45;4.37;;;3.07;;
16965;SDS011;8599;47.852;12.070;2023-04-23T13:05:11;4.80;;;3.13;;
16965;SDS011;8599;47.852;12.070;2023-04-23T13:07:38;4.90;;;3.23;;
16965;SDS011;8599;47.852;12.070;2023-04-23T13:10:05;3.73;;;2.80;;
16965;SDS011;8599;47.852;12.070;2023-04-23T13:12:33;3.97;;;3.13;;
16965;SDS011;8599;47.852;12.070;2023-04-23T13:15:01;4.73;;;3.20;;
16965;SDS011;8599;47.852;12.070;2023-04-23T13:17:29;3.30;;;3.00;;
16965;SDS011;8599;47.852;12.070;2023-04-23T13:19:56;5.07;;;3.10;;
16965;SDS011;8599;47.852;12.070;2023-04-23T13:22:23;3.33;;;2.87;;
16965;SDS011;8599;47.852;12.070;2023-04-23T13:24:53;3.93;;;3.53;;
16965;SDS011;8599;47.852;12.070;2023-04-23T13:27:20;5.70;;;3.17;;
16965;SDS011;8599;47.852;12.070;2023-04-23T13:29:49;4.50;;;3.30;;
16965;SDS011;8599;47.852;12.070;2023-04-23T13:32:17;3.57;;;3.17;;
16965;SDS011;8599;47.852;12.070;2023-04-23T13:34:44;6.97;;;3.60;;
16965;SDS011;8599;47.852;12.070;2023-04-23T13:37:10;5.60;;;3.37;;
16965;SDS011;8599;47.852;12.070;2023-04-23T13:39:37;3.63;;;2.87;;
16965;SDS011;8599;47.852;12.070;2023-04-23T13:42:05;5.10;;;3.23;;
16965;SDS011;8599;47.852;12.070;2023-04-23T13:44:31;4.00;;;3.20;;
16965;SDS011;8599;47.852;12.070;2023-04-23T13:46:58;4.40;;;2.63;;
16965;SDS011;8599;47.852;12.070;2023-04-23T13:49:26;3.63;;;2.90;;
16965;SDS011;8599;47.852;12.070;2023-04-23T13:51:53;4.07;;;3.37;;
16965;SDS011;8599;47.852;12.070;2023-04-23T13:54:23;3.63;;;2.90;;
16965;SDS011;8599;47.852;12.070;2023-04-23T13:56:51;5.37;;;3.33;;
16965;SDS011;8599;47.852;12.070;2023-04-23T13:59:18;3.50;;;3.20;;
16965;SDS011;8599;47.852;12.070;2023-04-23T14:01:45;5.33;;;3.47;;
16965;SDS011;8599;47.852;12.070;2023-04-23T14:04:13;6.00;;;3.00;;
16965;SDS011;8599;47.852;12.070;2023-04-23T14:06:42;4.47;;;3.50;;
16965;SDS011;8599;47.852;12.070;2023-04-23T14:09:09;4.33;;;3.10;;
16965;SDS011;8599;47.852;12.070;2023-04-23T14:11:36;5.23;;;3.00;;
16965;SDS011;8599;47.852;12.070;2023-04-23T14:14:04;4.77;;;3.37;;
16965;SDS011;8599;47.852;12.070;2023-04-23T14:16:31;6.20;;;2.80;;
16965;SDS011;8599;47.852;12.070;2023-04-23T14:18:58;3.87;;;2.90;;
16965;SDS011;8599;47.852;12.070;2023-04-23T14:21:25;4.90;;;2.93;;
16965;SDS011;8599;47.852;12.070;2023-04-23T14:23:55;5.70;;;3.60;;
16965;SDS011;8599;47.852;12.070;2023-04-23T14:26:27;9.73;;;3.63;;
16965;SDS011;8599;47.852;12.070;2023-04-23T14:29:01;5.07;;;3.27;;
16965;SDS011;8599;47.852;12.070;2023-04-23T14:31:29;3.40;;;3.20;;
16965;SDS011;8599;47.852;12.070;2023-04-23T14:33:56;4.77;;;3.70;;
16965;SDS011;8599;47.852;12.070;2023-04-23T14:36:23;5.33;;;3.20;;
16965;SDS011;8599;47.852;12.070;2023-04-23T14:38:50;3.83;;;3.30;;
16965;SDS011;8599;47.852;12.070;2023-04-23T14:41:18;5.07;;;3.80;;
16965;SDS011;8599;47.852;12.070;2023-04-23T14:43:45;4.30;;;3.53;;
16965;SDS011;8599;47.852;12.070;2023-04-23T14:46:12;4.93;;;3.70;;
16965;SDS011;8599;47.852;12.070;2023-04-23T14:48:39;3.97;;;3.53;;
16965;SDS011;8599;47.852;12.070;2023-04-23T14:51:06;5.70;;;3.90;;